createdAt,value
2022-11-09T07:31:11.783Z,20.90
2022-11-09T07:46:16.417Z,22.70
2022-11-09T08:01:21.296Z,23.60
2022-11-09T08:16:25.904Z,24.00
2022-11-09T08:31:30.950Z,24.10
2022-11-09T08:46:40.823Z,24.30
2022-11-09T09:01:45.690Z,24.30
2022-11-09T09:16:50.239Z,24.20
2022-11-09T09:31:54.751Z,24.30
2022-11-09T09:47:06.922Z,24.20
2022-11-09T10:02:22.753Z,24.20
2022-11-09T10:17:39.073Z,24.30
2022-11-09T10:32:46.755Z,24.30
2022-11-09T10:47:53.125Z,24.40
2022-11-09T11:03:19.221Z,24.50
2022-11-09T11:18:46.549Z,24.50
2022-11-09T11:34:32.189Z,24.50
2022-11-09T11:50:31.451Z,24.50
2022-11-09T12:06:08.636Z,24.60
2022-11-09T12:21:37.410Z,24.50
2022-11-09T12:37:03.830Z,24.50
2022-11-09T12:52:29.799Z,24.60
2022-11-09T13:07:54.303Z,24.60
2022-11-09T13:23:59.120Z,24.60
2022-11-09T13:39:39.184Z,24.60
2022-11-09T13:55:02.778Z,24.60
2022-11-09T14:10:45.908Z,24.60
2022-11-09T14:26:10.097Z,24.60
2022-11-09T14:41:34.038Z,24.60
2022-11-09T14:56:57.634Z,24.60
2022-11-09T15:12:22.146Z,24.60
2022-11-09T15:27:56.932Z,24.60
2022-11-09T15:43:19.975Z,24.60
2022-11-09T15:58:43.043Z,24.60
2022-11-09T16:14:06.157Z,24.60
2022-11-09T16:29:30.422Z,24.60
2022-11-09T16:44:54.085Z,24.60
2022-11-09T17:00:23.008Z,24.60
2022-11-09T17:15:49.154Z,24.60
2022-11-09T17:31:13.818Z,24.50
2022-11-09T17:46:36.972Z,24.50
2022-11-09T18:01:59.895Z,24.50
2022-11-09T18:17:22.937Z,24.50
2022-11-09T18:32:46.056Z,24.50
2022-11-09T18:48:09.515Z,24.50
2022-11-09T19:03:33.430Z,24.40
2022-11-09T19:18:56.914Z,24.40
